createdAt,value
2022-07-28T00:00:41.839Z,2.33
2022-07-28T00:03:08.479Z,2.70
2022-07-28T00:05:35.122Z,2.70
2022-07-28T00:08:01.766Z,2.70
2022-07-28T00:10:28.309Z,2.70
2022-07-28T00:12:54.904Z,3.80
2022-07-28T00:15:21.419Z,2.80
2022-07-28T00:17:48.090Z,3.40
2022-07-28T00:20:14.633Z,2.73
2022-07-28T00:22:42.531Z,2.80
2022-07-28T00:25:10.218Z,2.57
2022-07-28T00:27:36.900Z,2.60
2022-07-28T00:30:05.627Z,2.27
2022-07-28T00:32:32.382Z,2.60
2022-07-28T00:34:59.061Z,3.03
2022-07-28T00:37:26.621Z,2.60
2022-07-28T00:39:53.157Z,2.53
2022-07-28T00:42:20.345Z,2.60
2022-07-28T00:44:47.165Z,2.40
2022-07-28T00:47:13.813Z,2.63
2022-07-28T00:49:40.384Z,2.17
2022-07-28T00:52:08.938Z,2.70
2022-07-28T00:54:36.082Z,3.47
2022-07-28T00:57:02.686Z,2.63
2022-07-28T00:59:29.219Z,2.53
2022-07-28T01:01:55.949Z,2.60
2022-07-28T01:04:22.568Z,3.03
2022-07-28T01:06:58.733Z,2.70
2022-07-28T01:10:02.528Z,2.80
2022-07-28T01:12:47.710Z,2.97
2022-07-28T01:15:25.864Z,2.40
2022-07-28T01:18:02.450Z,2.50
2022-07-28T01:20:47.925Z,2.57
2022-07-28T01:23:14.564Z,2.47
2022-07-28T01:25:54.394Z,3.03
2022-07-28T01:28:29.597Z,2.50
2022-07-28T01:31:01.597Z,2.33
2022-07-28T01:33:39.467Z,2.70
2022-07-28T01:36:11.479Z,2.20
2022-07-28T01:38:38.487Z,2.40
2022-07-28T01:41:06.827Z,2.60
2022-07-28T01:43:34.647Z,2.73
2022-07-28T01:46:01.245Z,2.40
2022-07-28T01:48:27.851Z,2.70
2022-07-28T01:50:55.138Z,2.50
2022-07-28T01:53:21.784Z,2.50
2022-07-28T01:55:48.564Z,2.50
2022-07-28T01:58:15.158Z,2.87
2022-07-28T02:00:42.788Z,2.57
2022-07-28T02:03:10.770Z,2.30
2022-07-28T02:05:37.412Z,2.77
2022-07-28T02:08:04.272Z,2.53
2022-07-28T02:10:30.848Z,2.70
2022-07-28T02:12:57.875Z,2.60
2022-07-28T02:15:24.439Z,2.20
2022-07-28T02:17:50.981Z,2.90
2022-07-28T02:20:18.056Z,2.50
2022-07-28T02:22:44.586Z,2.63
2022-07-28T02:25:18.042Z,2.20
2022-07-28T02:27:49.409Z,3.07
2022-07-28T02:30:17.931Z,2.67
2022-07-28T02:32:57.118Z,2.60
2022-07-28T02:35:34.580Z,2.30
2022-07-28T02:38:10.474Z,2.40
2022-07-28T02:40:38.734Z,2.40
2022-07-28T02:43:08.358Z,2.37
2022-07-28T02:45:34.945Z,3.73
2022-07-28T02:48:03.353Z,2.50
2022-07-28T02:50:29.903Z,2.53
2022-07-28T02:53:01.873Z,2.53
2022-07-28T02:55:41.889Z,2.30
2022-07-28T02:58:08.645Z,2.53
2022-07-28T03:00:35.268Z,2.70
2022-07-28T03:03:01.829Z,2.70
2022-07-28T03:05:28.803Z,2.50
2022-07-28T03:07:56.675Z,2.60
2022-07-28T03:10:33.579Z,2.70
2022-07-28T03:13:01.987Z,3.03
2022-07-28T03:15:28.601Z,2.63
2022-07-28T03:17:55.353Z,2.20
2022-07-28T03:20:21.886Z,2.50
2022-07-28T03:22:48.553Z,2.73
2022-07-28T03:25:27.598Z,2.40
2022-07-28T03:27:54.170Z,2.40
2022-07-28T03:30:22.826Z,2.33
2022-07-28T03:33:00.432Z,2.87
2022-07-28T03:35:27.372Z,2.67
2022-07-28T03:38:24.145Z,2.60
2022-07-28T03:40:50.696Z,2.67
2022-07-28T03:43:19.041Z,2.97
2022-07-28T03:45:46.954Z,2.67
2022-07-28T03:48:13.834Z,2.70
2022-07-28T03:50:40.482Z,2.90
2022-07-28T03:53:11.053Z,2.67
2022-07-28T03:55:37.604Z,2.80
2022-07-28T03:58:04.167Z,2.63
2022-07-28T04:00:30.813Z,2.67
2022-07-28T04:02:57.442Z,2.43
2022-07-28T04:05:24.003Z,4.67
2022-07-28T04:07:50.535Z,2.43
2022-07-28T04:10:17.302Z,2.63
2022-07-28T04:12:57.311Z,2.80
2022-07-28T04:15:24.803Z,2.30
2022-07-28T04:17:51.892Z,2.87
2022-07-28T04:20:18.921Z,5.33
2022-07-28T04:22:45.765Z,3.93
2022-07-28T04:25:15.387Z,5.67
2022-07-28T04:27:42.369Z,6.60
2022-07-28T04:30:13.629Z,4.77
2022-07-28T04:32:49.310Z,6.03
2022-07-28T04:35:17.745Z,4.90
2022-07-28T04:37:44.785Z,7.40
2022-07-28T04:40:12.056Z,7.00
2022-07-28T04:42:38.712Z,8.33
2022-07-28T04:45:06.455Z,7.57
2022-07-28T04:47:33.037Z,7.37
2022-07-28T04:49:59.598Z,5.43
2022-07-28T04:52:27.107Z,5.07
2022-07-28T04:54:53.808Z,5.03
2022-07-28T04:57:20.492Z,5.57
2022-07-28T04:59:48.690Z,4.63
2022-07-28T05:02:16.676Z,5.70
2022-07-28T05:04:43.770Z,5.17
2022-07-28T05:07:12.583Z,5.90
2022-07-28T05:09:39.634Z,6.40
2022-07-28T05:12:06.652Z,5.33
2022-07-28T05:14:33.225Z,7.70
2022-07-28T05:16:59.816Z,6.53
2022-07-28T05:19:26.428Z,6.03
2022-07-28T05:21:52.965Z,6.80
2022-07-28T05:24:19.563Z,9.23
2022-07-28T05:26:46.093Z,11.07
2022-07-28T05:29:12.661Z,8.07
2022-07-28T05:31:39.345Z,10.13
2022-07-28T05:34:06.197Z,9.73
2022-07-28T05:36:32.773Z,9.83
2022-07-28T05:38:59.369Z,8.70
2022-07-28T05:41:26.000Z,7.10
2022-07-28T05:43:52.530Z,7.80
2022-07-28T05:46:20.860Z,6.73
2022-07-28T05:48:47.574Z,8.03
2022-07-28T05:51:14.209Z,9.03
2022-07-28T05:53:40.733Z,11.40
2022-07-28T05:56:07.256Z,9.03
2022-07-28T05:58:33.828Z,8.53
2022-07-28T06:01:01.347Z,10.27
2022-07-28T06:03:32.275Z,12.23
2022-07-28T06:06:14.468Z,12.23
2022-07-28T06:08:43.106Z,12.30
2022-07-28T06:11:09.866Z,11.47
2022-07-28T06:13:36.541Z,10.27
2022-07-28T06:16:11.188Z,8.50
2022-07-28T06:18:39.815Z,11.00
2022-07-28T06:21:06.389Z,11.97
2022-07-28T06:23:32.977Z,10.30
2022-07-28T06:25:59.551Z,9.60
2022-07-28T06:28:26.089Z,10.23
2022-07-28T06:30:52.673Z,10.07
2022-07-28T06:33:19.237Z,9.67
2022-07-28T06:35:46.022Z,8.87
2022-07-28T06:38:17.750Z,7.93
2022-07-28T06:40:46.325Z,8.27
2022-07-28T06:43:14.449Z,9.37
2022-07-28T06:45:41.138Z,8.47
2022-07-28T06:48:08.686Z,9.67
2022-07-28T06:50:35.926Z,9.97
2022-07-28T06:53:02.480Z,6.60
2022-07-28T06:55:35.527Z,6.80
2022-07-28T06:58:03.546Z,7.70
2022-07-28T07:00:30.271Z,8.33
2022-07-28T07:02:56.942Z,6.50
2022-07-28T07:05:23.492Z,7.43
2022-07-28T07:07:50.034Z,6.20
2022-07-28T07:10:16.630Z,7.43
2022-07-28T07:12:43.153Z,8.67
2022-07-28T07:15:10.524Z,6.37
2022-07-28T07:17:39.885Z,6.80
2022-07-28T07:20:07.181Z,6.53
2022-07-28T07:22:33.780Z,6.80
2022-07-28T07:25:12.628Z,6.33
2022-07-28T07:27:39.495Z,8.40
2022-07-28T07:30:06.805Z,6.43
2022-07-28T07:32:33.370Z,5.50
2022-07-28T07:34:59.942Z,6.07
2022-07-28T07:37:26.565Z,5.60
2022-07-28T07:39:53.129Z,5.33
2022-07-28T07:42:19.703Z,6.13
2022-07-28T07:44:51.447Z,5.50
2022-07-28T07:47:18.484Z,5.60
2022-07-28T07:49:46.234Z,5.33
2022-07-28T07:52:13.741Z,6.60
2022-07-28T07:54:40.309Z,5.23
2022-07-28T07:57:06.892Z,5.67
2022-07-28T07:59:33.450Z,5.00
2022-07-28T08:02:00.351Z,5.67
2022-07-28T08:04:27.015Z,4.90
2022-07-28T08:06:55.354Z,5.30
2022-07-28T08:09:22.714Z,5.00
2022-07-28T08:11:49.586Z,6.13
2022-07-28T08:14:17.600Z,6.40
2022-07-28T08:16:44.575Z,5.00
2022-07-28T08:19:11.181Z,5.43
2022-07-28T08:21:39.454Z,5.73
2022-07-28T08:24:06.439Z,4.57
2022-07-28T08:26:32.995Z,4.80
2022-07-28T08:28:59.549Z,4.30
2022-07-28T08:31:26.439Z,4.50
2022-07-28T08:33:54.615Z,6.87
2022-07-28T08:36:21.930Z,4.63
2022-07-28T08:38:48.484Z,4.87
2022-07-28T08:41:21.670Z,4.70
2022-07-28T08:43:48.221Z,5.53
2022-07-28T08:46:14.956Z,4.80
2022-07-28T08:48:43.683Z,4.33
2022-07-28T08:51:11.366Z,5.40
2022-07-28T08:53:40.020Z,4.90
2022-07-28T08:56:12.139Z,4.00
2022-07-28T08:58:38.759Z,4.87
2022-07-28T09:01:07.557Z,4.30
2022-07-28T09:03:34.423Z,4.37
2022-07-28T09:06:01.023Z,5.03
2022-07-28T09:08:27.581Z,4.50
2022-07-28T09:10:54.220Z,4.97
2022-07-28T09:13:20.740Z,4.60
2022-07-28T09:15:47.563Z,4.00
2022-07-28T09:18:15.016Z,4.43
2022-07-28T09:20:42.350Z,5.13
2022-07-28T09:23:42.837Z,4.07
2022-07-28T09:26:11.275Z,4.97
2022-07-28T09:28:49.290Z,4.27
2022-07-28T09:31:16.655Z,4.40
2022-07-28T09:34:13.477Z,3.83
2022-07-28T09:36:41.447Z,4.27
2022-07-28T09:39:08.311Z,4.30
2022-07-28T09:41:48.634Z,5.67
2022-07-28T09:44:19.761Z,6.50
2022-07-28T09:46:46.452Z,4.53
2022-07-28T09:49:13.330Z,4.63
2022-07-28T09:51:40.188Z,4.13
2022-07-28T09:54:14.075Z,4.87
2022-07-28T09:56:45.525Z,4.23
2022-07-28T09:59:12.785Z,4.63
2022-07-28T10:02:12.426Z,4.87
2022-07-28T10:04:40.575Z,4.77
2022-07-28T10:07:17.269Z,8.50
2022-07-28T10:09:46.634Z,5.40
2022-07-28T10:12:24.352Z,4.70
2022-07-28T10:14:52.292Z,4.87
2022-07-28T10:17:29.734Z,5.17
2022-07-28T10:20:03.952Z,5.57
2022-07-28T10:22:42.763Z,4.23
2022-07-28T10:25:12.534Z,4.47
2022-07-28T10:27:41.018Z,5.43
2022-07-28T10:30:08.200Z,6.00
2022-07-28T10:32:52.686Z,4.63
2022-07-28T10:35:19.264Z,4.27
2022-07-28T10:38:06.632Z,4.70
2022-07-28T10:40:36.209Z,4.70
2022-07-28T10:43:02.766Z,4.77
2022-07-28T10:45:48.048Z,4.77
2022-07-28T10:48:16.639Z,4.77
2022-07-28T10:50:43.224Z,6.80
2022-07-28T10:53:09.762Z,4.43
2022-07-28T10:55:58.749Z,4.73
2022-07-28T10:58:38.901Z,6.63
2022-07-28T11:01:10.668Z,4.60
2022-07-28T11:03:44.965Z,4.40
2022-07-28T11:06:45.984Z,4.80
2022-07-28T11:09:15.440Z,4.53
2022-07-28T11:11:54.269Z,4.83
2022-07-28T11:14:27.069Z,4.63
2022-07-28T11:17:05.691Z,4.23
2022-07-28T11:22:34.362Z,4.73
2022-07-28T11:25:19.756Z,4.40
2022-07-28T11:27:51.384Z,3.97
2022-07-28T11:30:28.671Z,4.60
2022-07-28T11:32:55.297Z,4.27
2022-07-28T11:35:22.725Z,4.30
2022-07-28T11:38:01.404Z,5.10
2022-07-28T11:40:31.258Z,4.60
2022-07-28T11:43:35.306Z,4.23
2022-07-28T11:46:10.468Z,4.20
2022-07-28T11:48:42.124Z,5.40
2022-07-28T11:51:12.452Z,4.27
2022-07-28T11:53:46.330Z,5.77
2022-07-28T11:56:25.974Z,4.43
2022-07-28T11:58:59.733Z,4.30
2022-07-28T12:01:27.082Z,4.07
2022-07-28T12:03:55.558Z,4.00
2022-07-28T12:06:27.326Z,4.63
2022-07-28T12:09:00.745Z,4.67
2022-07-28T12:11:28.269Z,4.23
2022-07-28T12:14:02.030Z,4.47
2022-07-28T12:16:32.514Z,4.27
2022-07-28T12:19:02.514Z,4.63
2022-07-28T12:21:46.159Z,4.03
2022-07-28T12:24:23.810Z,4.20
2022-07-28T12:26:50.671Z,3.90
2022-07-28T12:29:17.439Z,4.27
2022-07-28T12:31:58.900Z,4.30
2022-07-28T12:34:29.635Z,5.43
2022-07-28T12:37:01.972Z,4.03
2022-07-28T12:39:34.120Z,4.10
2022-07-28T12:42:11.501Z,3.93
2022-07-28T12:44:42.425Z,4.10
2022-07-28T12:47:12.816Z,4.37
2022-07-28T12:49:40.788Z,4.40
2022-07-28T12:52:24.325Z,6.10
2022-07-28T12:54:55.446Z,3.93
2022-07-28T12:57:50.873Z,3.90
2022-07-28T13:00:20.201Z,4.33
2022-07-28T13:02:47.571Z,4.20
2022-07-28T13:06:04.640Z,4.30
2022-07-28T13:08:37.883Z,3.73
2022-07-28T13:11:28.084Z,5.17
2022-07-28T13:13:59.549Z,3.70
2022-07-28T13:16:27.168Z,4.03
2022-07-28T13:18:58.025Z,3.77
2022-07-28T13:21:56.572Z,3.87
2022-07-28T13:24:26.900Z,4.37
2022-07-28T13:26:53.493Z,3.90
2022-07-28T13:29:20.020Z,3.97
2022-07-28T13:31:46.658Z,4.30
2022-07-28T13:34:13.721Z,3.43
2022-07-28T13:36:40.485Z,4.20
2022-07-28T13:39:07.188Z,5.07
2022-07-28T13:41:56.125Z,4.40
2022-07-28T13:44:20.285Z,4.03
2022-07-28T13:46:47.153Z,4.20
2022-07-28T13:49:16.598Z,4.10
2022-07-28T13:51:43.253Z,4.90
2022-07-28T13:54:09.813Z,6.37
2022-07-28T13:56:43.017Z,4.50
2022-07-28T13:59:09.893Z,4.70
2022-07-28T14:01:41.064Z,4.10
2022-07-28T14:04:13.197Z,4.20
2022-07-28T14:06:44.898Z,4.67
2022-07-28T14:09:12.023Z,4.60
2022-07-28T14:11:41.210Z,3.90
2022-07-28T14:14:17.030Z,3.80
2022-07-28T14:16:47.826Z,4.13
2022-07-28T14:19:16.486Z,4.20
2022-07-28T14:21:50.266Z,4.53
2022-07-28T14:24:17.502Z,3.70
2022-07-28T14:26:44.364Z,4.17
2022-07-28T14:29:11.602Z,3.83
2022-07-28T14:31:38.688Z,4.03
2022-07-28T14:34:05.268Z,4.07
2022-07-28T14:36:31.819Z,3.70
2022-07-28T14:38:58.405Z,3.53
2022-07-28T14:41:25.834Z,3.70
2022-07-28T14:43:52.909Z,5.80
2022-07-28T14:46:21.631Z,3.80
2022-07-28T14:48:48.738Z,4.47
2022-07-28T14:51:15.409Z,4.60
2022-07-28T14:53:45.322Z,3.80
2022-07-28T14:56:18.188Z,3.93
2022-07-28T14:58:44.796Z,3.83
2022-07-28T15:01:11.492Z,3.53
2022-07-28T15:03:38.210Z,3.80
2022-07-28T15:06:10.086Z,3.80
2022-07-28T15:08:36.704Z,4.63
2022-07-28T15:11:03.264Z,4.57
2022-07-28T15:13:29.831Z,3.50
2022-07-28T15:15:57.002Z,3.67
2022-07-28T15:18:24.569Z,3.83
2022-07-28T15:20:51.260Z,3.70
2022-07-28T15:23:17.847Z,3.97
2022-07-28T15:25:46.419Z,3.90
2022-07-28T15:28:17.637Z,3.90
2022-07-28T15:30:51.709Z,3.90
2022-07-28T15:33:20.473Z,3.70
2022-07-28T15:35:57.944Z,3.40
2022-07-28T15:38:29.695Z,3.90
2022-07-28T15:41:01.608Z,3.43
2022-07-28T15:43:28.660Z,3.67
2022-07-28T15:45:55.749Z,3.53
2022-07-28T15:48:22.807Z,3.40
2022-07-28T15:50:49.370Z,4.10
2022-07-28T15:53:16.527Z,3.50
2022-07-28T15:55:46.356Z,3.90
2022-07-28T15:58:15.633Z,3.93
2022-07-28T16:00:44.435Z,3.83
2022-07-28T16:03:11.570Z,3.87
2022-07-28T16:05:38.409Z,3.37
2022-07-28T16:08:05.201Z,3.90
2022-07-28T16:10:31.774Z,3.97
2022-07-28T16:12:58.507Z,3.80
2022-07-28T16:15:26.882Z,3.73
2022-07-28T16:17:54.318Z,3.60
2022-07-28T16:20:21.054Z,5.47
2022-07-28T16:22:47.627Z,3.70
2022-07-28T16:25:16.939Z,4.03
2022-07-28T16:27:44.475Z,3.77
2022-07-28T16:30:11.649Z,3.40
2022-07-28T16:32:38.851Z,3.63
2022-07-28T16:35:06.702Z,2.90
2022-07-28T16:37:33.784Z,3.50
2022-07-28T16:40:00.332Z,4.00
2022-07-28T16:42:26.876Z,3.70
2022-07-28T16:44:53.416Z,3.60
2022-07-28T16:47:19.968Z,3.40
2022-07-28T16:49:46.567Z,3.83
2022-07-28T16:52:13.997Z,3.73
2022-07-28T16:54:40.548Z,4.20
2022-07-28T16:57:07.341Z,3.80
2022-07-28T16:59:37.988Z,4.73
2022-07-28T17:02:14.653Z,3.60
2022-07-28T17:04:41.310Z,3.60
2022-07-28T17:07:08.288Z,3.50
2022-07-28T17:09:34.886Z,4.87
2022-07-28T17:12:01.446Z,3.60
2022-07-28T17:14:28.004Z,4.83
2022-07-28T17:16:54.543Z,3.93
2022-07-28T17:19:22.178Z,3.03
2022-07-28T17:21:48.791Z,3.30
2022-07-28T17:24:15.867Z,3.27
2022-07-28T17:29:29.463Z,3.10
2022-07-28T17:31:56.072Z,3.60
2022-07-28T17:34:22.597Z,6.30
2022-07-28T17:36:50.369Z,3.37
2022-07-28T17:39:16.959Z,3.30
2022-07-28T17:41:43.521Z,3.30
2022-07-28T17:44:10.104Z,3.33
2022-07-28T17:46:36.741Z,3.60
2022-07-28T17:49:05.127Z,4.07
2022-07-28T17:51:31.834Z,3.70
2022-07-28T17:53:58.388Z,3.40
2022-07-28T17:56:25.079Z,3.10
2022-07-28T17:58:52.516Z,3.20
2022-07-28T18:01:19.118Z,3.43
2022-07-28T18:03:58.556Z,3.20
2022-07-28T18:06:27.430Z,3.60
2022-07-28T18:08:53.988Z,3.50
2022-07-28T18:11:20.708Z,3.50
2022-07-28T18:14:03.622Z,3.80
2022-07-28T18:16:32.344Z,3.50
2022-07-28T18:18:58.904Z,3.77
2022-07-28T18:21:26.553Z,3.10
2022-07-28T18:23:54.982Z,3.50
2022-07-28T18:26:22.119Z,3.27
2022-07-28T18:28:48.913Z,3.37
2022-07-28T18:31:15.593Z,3.67
2022-07-28T18:33:42.143Z,3.43
2022-07-28T18:36:08.804Z,3.10
2022-07-28T18:38:35.475Z,3.30
2022-07-28T18:41:02.064Z,3.20
2022-07-28T18:43:28.612Z,3.87
2022-07-28T18:45:55.230Z,3.17
2022-07-28T18:48:25.278Z,3.73
2022-07-28T18:50:52.021Z,3.40
2022-07-28T18:53:18.573Z,3.33
2022-07-28T18:55:45.119Z,3.27
2022-07-28T18:58:11.684Z,3.50
2022-07-28T19:00:38.284Z,3.63
2022-07-28T19:03:04.879Z,3.40
2022-07-28T19:05:36.531Z,3.30
2022-07-28T19:08:04.073Z,3.17
2022-07-28T19:10:30.667Z,3.13
2022-07-28T19:12:57.289Z,3.57
2022-07-28T19:15:24.101Z,3.23
2022-07-28T19:18:09.911Z,3.50
2022-07-28T19:20:42.384Z,3.00
2022-07-28T19:23:08.974Z,3.10
2022-07-28T19:25:38.077Z,3.10
2022-07-28T19:28:05.300Z,3.60
2022-07-28T19:30:32.258Z,2.90
2022-07-28T19:32:59.110Z,3.50
2022-07-28T19:35:25.858Z,3.50
2022-07-28T19:37:52.637Z,3.43
2022-07-28T19:40:19.208Z,3.00
2022-07-28T19:42:48.283Z,3.13
2022-07-28T19:45:14.949Z,3.50
2022-07-28T19:47:42.245Z,6.90
2022-07-28T19:50:09.084Z,3.13
2022-07-28T19:52:37.450Z,3.47
2022-07-28T19:55:05.330Z,2.97
2022-07-28T19:57:32.760Z,3.20
2022-07-28T19:59:59.355Z,2.90
2022-07-28T20:02:25.938Z,3.40
2022-07-28T20:04:52.533Z,3.03
2022-07-28T20:07:19.075Z,3.60
2022-07-28T20:09:45.707Z,3.17
2022-07-28T20:12:12.245Z,3.27
2022-07-28T20:14:38.806Z,3.40
2022-07-28T20:17:05.454Z,3.30
2022-07-28T20:19:32.161Z,3.00
2022-07-28T20:21:58.686Z,3.37
2022-07-28T20:24:25.289Z,2.93
2022-07-28T20:26:51.857Z,3.27
2022-07-28T20:29:18.446Z,3.43
2022-07-28T20:31:45.009Z,3.20
2022-07-28T20:34:12.801Z,2.83
2022-07-28T20:36:39.868Z,3.00
2022-07-28T20:39:27.537Z,3.50
2022-07-28T20:41:53.012Z,3.30
2022-07-28T20:44:28.904Z,3.00
2022-07-28T20:46:58.487Z,3.40
2022-07-28T20:49:25.205Z,3.10
2022-07-28T20:51:51.813Z,3.20
2022-07-28T20:54:18.869Z,3.40
2022-07-28T20:56:45.517Z,3.13
2022-07-28T20:59:12.088Z,2.90
2022-07-28T21:01:39.112Z,3.27
2022-07-28T21:04:05.798Z,3.27
2022-07-28T21:06:32.510Z,3.77
2022-07-28T21:09:01.804Z,3.00
2022-07-28T21:11:28.891Z,3.10
2022-07-28T21:14:01.723Z,3.70
2022-07-28T21:16:28.345Z,2.90
2022-07-28T21:18:55.039Z,3.03
2022-07-28T21:21:22.091Z,3.70
2022-07-28T21:23:49.396Z,3.03
2022-07-28T21:26:15.960Z,3.03
2022-07-28T21:29:01.054Z,3.27
2022-07-28T21:31:27.594Z,3.13
2022-07-28T21:33:54.181Z,2.70
2022-07-28T21:36:20.890Z,2.87
2022-07-28T21:38:47.507Z,3.07
2022-07-28T21:41:14.075Z,4.60
2022-07-28T21:43:40.628Z,3.13
2022-07-28T21:46:07.217Z,3.17
2022-07-28T21:48:33.912Z,3.20
2022-07-28T21:51:00.508Z,2.87
2022-07-28T21:53:27.097Z,3.00
2022-07-28T21:55:53.694Z,2.90
2022-07-28T21:58:20.320Z,3.10
2022-07-28T22:00:46.901Z,2.70
2022-07-28T22:03:13.575Z,3.10
2022-07-28T22:05:40.234Z,2.90
2022-07-28T22:08:08.565Z,3.10
2022-07-28T22:10:35.122Z,3.47
2022-07-28T22:13:01.660Z,3.03
2022-07-28T22:15:28.336Z,2.97
2022-07-28T22:17:54.997Z,2.90
2022-07-28T22:20:21.598Z,3.20
2022-07-28T22:22:48.141Z,2.70
2022-07-28T22:25:14.685Z,2.90
2022-07-28T22:27:41.339Z,2.87
2022-07-28T22:30:08.229Z,3.10
2022-07-28T22:32:34.804Z,2.90
2022-07-28T22:35:01.323Z,3.10
2022-07-28T22:37:27.897Z,2.90
2022-07-28T22:39:54.792Z,3.40
2022-07-28T22:42:21.387Z,2.97
2022-07-28T22:44:48.569Z,2.80
2022-07-28T22:47:15.219Z,3.13
2022-07-28T22:49:41.774Z,3.07
2022-07-28T22:52:08.341Z,2.63
2022-07-28T22:54:38.973Z,2.60
2022-07-28T22:57:06.182Z,2.87
2022-07-28T22:59:33.895Z,3.17
2022-07-28T23:02:05.282Z,4.03
2022-07-28T23:04:31.848Z,3.10
2022-07-28T23:06:58.424Z,3.00
2022-07-28T23:09:25.196Z,2.77
2022-07-28T23:11:55.506Z,3.03
2022-07-28T23:14:22.524Z,2.90
2022-07-28T23:16:49.187Z,2.90
2022-07-28T23:19:16.412Z,2.80
2022-07-28T23:21:42.972Z,2.90
2022-07-28T23:24:09.483Z,2.90
2022-07-28T23:26:36.060Z,2.90
2022-07-28T23:29:02.607Z,2.80
2022-07-28T23:31:29.303Z,2.93
2022-07-28T23:33:57.666Z,3.00
2022-07-28T23:36:26.097Z,2.60
2022-07-28T23:38:54.043Z,2.83
2022-07-28T23:41:20.604Z,2.93
2022-07-28T23:43:47.128Z,3.10
2022-07-28T23:46:13.720Z,3.10
2022-07-28T23:48:40.300Z,2.90
2022-07-28T23:51:06.867Z,2.63
2022-07-28T23:53:39.042Z,2.70
2022-07-28T23:56:05.769Z,4.07
2022-07-28T23:58:32.341Z,3.10
